createdAt,value
2018-11-26T00:00:24.494Z,84.73
2018-11-26T00:02:53.216Z,87.47
2018-11-26T00:05:21.917Z,90.50
2018-11-26T00:07:56.303Z,83.23
2018-11-26T00:10:36.352Z,87.37
2018-11-26T00:13:05.886Z,77.90
2018-11-26T00:15:34.575Z,92.00
2018-11-26T00:18:09.692Z,72.20
2018-11-26T00:20:38.698Z,74.83
2018-11-26T00:23:07.589Z,82.20
2018-11-26T00:25:36.673Z,98.43
2018-11-26T00:28:05.622Z,84.17
2018-11-26T00:30:34.328Z,88.90
2018-11-26T00:33:03.781Z,78.00
2018-11-26T00:35:32.696Z,74.10
2018-11-26T00:38:01.357Z,77.53
2018-11-26T00:40:30.589Z,89.60
2018-11-26T00:42:59.316Z,83.83
2018-11-26T00:45:28.013Z,80.77
2018-11-26T00:47:56.705Z,71.67
2018-11-26T00:50:25.509Z,84.97
2018-11-26T00:52:54.353Z,77.87
2018-11-26T00:55:23.053Z,83.90
2018-11-26T00:57:52.144Z,75.20
2018-11-26T01:00:20.871Z,86.10
2018-11-26T01:02:49.568Z,82.07
2018-11-26T01:05:38.436Z,85.10
2018-11-26T01:08:07.214Z,79.45
2018-11-26T01:10:36.192Z,81.03
2018-11-26T01:13:05.561Z,81.13
2018-11-26T01:15:34.249Z,79.37
2018-11-26T01:18:02.934Z,74.90
2018-11-26T01:20:31.861Z,78.80
2018-11-26T01:23:00.568Z,74.87
2018-11-26T01:25:29.260Z,82.80
2018-11-26T01:27:57.947Z,91.70
2018-11-26T01:30:26.650Z,74.13
2018-11-26T01:32:55.407Z,78.97
2018-11-26T01:35:24.094Z,75.30
2018-11-26T01:37:52.794Z,77.60
2018-11-26T01:40:22.876Z,77.97
2018-11-26T01:42:51.572Z,73.00
2018-11-26T01:45:20.273Z,78.20
2018-11-26T01:47:48.989Z,73.70
2018-11-26T01:50:17.789Z,70.27
2018-11-26T01:52:46.496Z,70.60
2018-11-26T01:55:15.214Z,64.67
2018-11-26T01:57:44.208Z,68.37
2018-11-26T02:00:15.454Z,68.70
2018-11-26T02:02:44.484Z,76.37
2018-11-26T02:05:13.188Z,70.33
2018-11-26T02:07:41.884Z,68.87
2018-11-26T02:10:11.771Z,68.93
2018-11-26T02:12:40.510Z,70.43
2018-11-26T02:15:10.652Z,58.80
2018-11-26T02:17:40.052Z,68.03
2018-11-26T02:20:10.213Z,73.07
2018-11-26T02:22:38.950Z,58.20
2018-11-26T02:25:08.338Z,67.90
2018-11-26T02:27:37.026Z,67.40
2018-11-26T02:30:06.889Z,62.83
2018-11-26T02:32:35.852Z,52.73
2018-11-26T02:35:05.740Z,64.00
2018-11-26T02:37:34.694Z,64.70
2018-11-26T02:40:03.397Z,57.97
2018-11-26T02:42:32.084Z,61.67
2018-11-26T02:45:00.881Z,56.83
2018-11-26T02:47:29.577Z,65.90
2018-11-26T02:49:58.277Z,64.00
2018-11-26T02:52:26.989Z,57.23
2018-11-26T02:54:55.672Z,65.33
2018-11-26T02:57:24.550Z,55.57
2018-11-26T02:59:53.487Z,48.07
2018-11-26T03:02:22.189Z,54.03
2018-11-26T03:04:50.877Z,60.28
2018-11-26T03:07:19.573Z,56.27
2018-11-26T03:09:48.268Z,59.13
2018-11-26T03:12:17.274Z,54.98
2018-11-26T03:14:45.970Z,56.43
2018-11-26T03:17:14.704Z,61.18
2018-11-26T03:19:43.376Z,52.87
2018-11-26T03:22:12.092Z,53.93
2018-11-26T03:24:40.784Z,54.97
2018-11-26T03:27:09.942Z,63.23
2018-11-26T03:29:38.661Z,49.80
2018-11-26T03:32:07.392Z,49.37
2018-11-26T03:34:36.103Z,55.10
2018-11-26T03:37:05.561Z,57.27
2018-11-26T03:39:34.261Z,54.93
2018-11-26T03:42:02.970Z,56.03
2018-11-26T03:44:31.689Z,58.30
2018-11-26T03:47:00.692Z,58.35
2018-11-26T03:49:29.412Z,63.43
2018-11-26T03:51:58.106Z,58.93
2018-11-26T03:54:26.808Z,52.73
2018-11-26T03:56:55.524Z,50.77
2018-11-26T03:59:24.238Z,60.87
2018-11-26T04:01:52.920Z,54.63
2018-11-26T04:04:21.624Z,53.73
2018-11-26T04:06:50.321Z,57.03
2018-11-26T04:09:19.027Z,57.10
2018-11-26T04:11:47.720Z,58.60
2018-11-26T04:14:16.437Z,53.23
2018-11-26T04:16:45.148Z,51.53
2018-11-26T04:19:13.845Z,63.23
2018-11-26T04:21:42.533Z,56.05
2018-11-26T04:24:11.232Z,58.57
2018-11-26T04:26:39.992Z,57.33
2018-11-26T04:29:08.709Z,46.33
2018-11-26T04:31:37.400Z,52.03
2018-11-26T04:36:53.189Z,52.50
2018-11-26T04:39:21.889Z,58.20
2018-11-26T04:41:50.833Z,52.40
2018-11-26T04:44:19.549Z,58.68
2018-11-26T04:46:48.249Z,57.43
2018-11-26T04:49:16.966Z,48.65
2018-11-26T04:51:45.650Z,46.70
2018-11-26T04:54:14.345Z,52.00
2018-11-26T04:56:43.070Z,54.93
2018-11-26T04:59:11.785Z,47.23
2018-11-26T05:01:40.493Z,51.37
2018-11-26T05:04:09.181Z,54.03
2018-11-26T05:06:37.910Z,55.27
2018-11-26T05:09:08.477Z,49.87
2018-11-26T05:11:37.829Z,54.57
2018-11-26T05:14:06.540Z,47.03
2018-11-26T05:16:35.228Z,51.93
2018-11-26T05:19:04.786Z,51.85
2018-11-26T05:21:33.472Z,47.20
2018-11-26T05:24:02.166Z,55.07
2018-11-26T05:26:31.163Z,62.00
2018-11-26T05:29:00.097Z,55.80
2018-11-26T05:31:28.830Z,55.47
2018-11-26T05:33:57.800Z,50.90
2018-11-26T05:36:26.494Z,57.03
2018-11-26T05:38:55.193Z,59.13
2018-11-26T05:41:23.891Z,57.03
2018-11-26T05:43:53.552Z,67.67
2018-11-26T05:46:22.262Z,62.03
2018-11-26T05:48:50.951Z,54.10
2018-11-26T05:51:19.645Z,63.68
2018-11-26T05:53:48.428Z,65.53
2018-11-26T05:56:17.116Z,61.17
2018-11-26T05:58:45.902Z,57.13
2018-11-26T06:01:14.592Z,53.48
2018-11-26T06:03:43.309Z,68.60
2018-11-26T06:06:12.013Z,68.47
2018-11-26T06:08:40.979Z,59.67
2018-11-26T06:11:09.677Z,67.47
2018-11-26T06:13:38.669Z,74.10
2018-11-26T06:16:07.388Z,70.90
2018-11-26T06:18:36.092Z,62.63
2018-11-26T06:21:05.370Z,68.83
2018-11-26T06:23:34.273Z,68.67
2018-11-26T06:26:02.965Z,68.77
2018-11-26T06:28:31.680Z,77.80
2018-11-26T06:31:00.373Z,73.93
2018-11-26T06:33:29.064Z,72.93
2018-11-26T06:35:57.997Z,76.60
2018-11-26T06:38:26.684Z,69.67
2018-11-26T06:40:55.528Z,66.90
2018-11-26T06:43:24.221Z,69.37
2018-11-26T06:45:52.918Z,68.70
2018-11-26T06:48:21.616Z,65.90
2018-11-26T06:50:50.308Z,71.80
2018-11-26T06:53:18.992Z,73.47
2018-11-26T06:55:47.692Z,75.60
2018-11-26T06:58:16.388Z,70.32
2018-11-26T07:00:45.176Z,77.53
2018-11-26T07:03:13.881Z,71.60
2018-11-26T07:05:42.582Z,67.80
2018-11-26T07:08:11.282Z,75.85
2018-11-26T07:10:40.004Z,65.17
2018-11-26T07:13:08.709Z,76.43
2018-11-26T07:15:37.413Z,73.07
2018-11-26T07:18:06.905Z,74.40
2018-11-26T07:20:35.594Z,69.20
2018-11-26T07:23:04.968Z,72.27
2018-11-26T07:25:33.668Z,73.83
2018-11-26T07:28:04.693Z,77.30
2018-11-26T07:30:33.407Z,68.90
2018-11-26T07:33:02.647Z,78.33
2018-11-26T07:35:32.281Z,71.70
2018-11-26T07:38:01.085Z,66.20
2018-11-26T07:40:29.788Z,73.17
2018-11-26T07:43:01.252Z,68.23
2018-11-26T07:45:30.061Z,65.10
2018-11-26T07:47:58.936Z,69.00
2018-11-26T07:50:27.769Z,62.90
2018-11-26T07:52:56.505Z,64.00
2018-11-26T07:55:25.203Z,68.73
2018-11-26T07:57:53.992Z,67.63
2018-11-26T08:00:22.936Z,74.47
2018-11-26T08:02:51.836Z,71.17
2018-11-26T08:05:22.339Z,73.37
2018-11-26T08:07:51.034Z,80.40
2018-11-26T08:10:21.089Z,85.43
2018-11-26T08:12:51.794Z,86.67
2018-11-26T08:15:22.657Z,84.97
2018-11-26T08:17:51.343Z,88.53
2018-11-26T08:20:20.140Z,86.70
2018-11-26T08:22:48.968Z,91.90
2018-11-26T08:25:22.401Z,85.83
2018-11-26T08:27:51.568Z,91.50
2018-11-26T08:30:23.083Z,78.80
2018-11-26T08:32:53.048Z,81.07
2018-11-26T08:35:21.769Z,81.93
2018-11-26T08:37:56.358Z,78.10
2018-11-26T08:40:26.169Z,91.70
2018-11-26T08:42:58.346Z,82.80
2018-11-26T08:45:34.423Z,79.15
2018-11-26T08:48:10.185Z,83.70
2018-11-26T08:50:39.204Z,78.43
2018-11-26T08:53:08.220Z,84.70
2018-11-26T08:55:37.037Z,79.50
2018-11-26T08:58:06.212Z,87.00
2018-11-26T09:00:34.915Z,76.60
2018-11-26T09:03:09.813Z,82.40
2018-11-26T09:05:44.865Z,89.53
2018-11-26T09:08:14.353Z,87.87
2018-11-26T09:10:43.079Z,89.53
2018-11-26T09:13:11.889Z,84.93
2018-11-26T09:15:40.784Z,79.13
2018-11-26T09:18:09.484Z,74.03
2018-11-26T09:20:38.196Z,83.53
2018-11-26T09:23:06.926Z,83.47
2018-11-26T09:25:35.864Z,74.10
2018-11-26T09:28:05.171Z,79.25
2018-11-26T09:30:33.880Z,74.60
2018-11-26T09:33:02.602Z,74.80
2018-11-26T09:35:31.357Z,78.47
2018-11-26T09:38:00.062Z,76.87
2018-11-26T09:40:29.047Z,73.40
2018-11-26T09:42:57.729Z,72.77
2018-11-26T09:45:26.445Z,75.20
2018-11-26T09:47:55.153Z,65.77
2018-11-26T09:50:23.939Z,72.20
2018-11-26T09:52:52.648Z,64.67
2018-11-26T09:55:21.364Z,69.67
2018-11-26T09:57:50.066Z,69.83
2018-11-26T10:00:19.710Z,65.33
2018-11-26T10:02:50.587Z,64.20
2018-11-26T10:05:22.400Z,66.00
2018-11-26T10:07:51.096Z,63.83
2018-11-26T10:10:19.873Z,63.80
2018-11-26T10:12:49.310Z,59.55
2018-11-26T10:15:23.596Z,56.73
2018-11-26T10:17:59.587Z,63.70
2018-11-26T10:20:28.301Z,62.90
2018-11-26T10:22:56.996Z,61.60
2018-11-26T10:25:25.968Z,57.30
2018-11-26T10:27:54.675Z,59.43
2018-11-26T10:30:24.216Z,58.40
2018-11-26T10:32:53.832Z,64.27
2018-11-26T10:35:22.916Z,63.53
2018-11-26T10:37:51.841Z,55.38
2018-11-26T10:40:22.631Z,58.27
2018-11-26T10:42:51.351Z,57.93
2018-11-26T10:45:21.279Z,62.57
2018-11-26T10:47:50.140Z,58.47
2018-11-26T10:50:20.251Z,57.53
2018-11-26T10:52:51.014Z,54.77
2018-11-26T10:55:22.015Z,53.80
2018-11-26T10:57:52.136Z,50.50
2018-11-26T11:00:26.192Z,52.98
2018-11-26T11:02:54.992Z,52.83
2018-11-26T11:05:23.818Z,46.87
2018-11-26T11:07:52.528Z,51.93
2018-11-26T11:10:24.380Z,51.00
2018-11-26T11:12:53.093Z,54.27
2018-11-26T11:15:21.941Z,51.00
2018-11-26T11:17:50.761Z,47.00
2018-11-26T11:20:24.041Z,47.62
2018-11-26T11:22:53.208Z,44.43
2018-11-26T11:25:22.318Z,43.87
2018-11-26T11:27:51.323Z,48.80
2018-11-26T11:30:21.114Z,41.80
2018-11-26T11:32:49.834Z,45.60
2018-11-26T11:35:18.988Z,51.93
2018-11-26T11:37:48.551Z,50.40
2018-11-26T11:40:19.246Z,44.53
2018-11-26T11:42:48.438Z,48.10
2018-11-26T11:45:17.235Z,46.80
2018-11-26T11:47:46.059Z,45.28
2018-11-26T11:50:15.910Z,47.93
2018-11-26T11:52:45.246Z,49.17
2018-11-26T11:55:15.873Z,45.78
2018-11-26T11:57:44.543Z,44.53
2018-11-26T12:00:19.433Z,45.20
2018-11-26T12:02:48.148Z,41.73
2018-11-26T12:05:16.881Z,45.67
2018-11-26T12:07:45.603Z,43.87
2018-11-26T12:10:14.377Z,42.60
2018-11-26T12:12:43.100Z,45.80
2018-11-26T12:15:13.190Z,43.42
2018-11-26T12:17:42.666Z,48.00
2018-11-26T12:20:12.538Z,49.33
2018-11-26T12:22:41.427Z,45.93
2018-11-26T12:25:14.206Z,44.23
2018-11-26T12:27:49.880Z,42.80
2018-11-26T12:30:20.892Z,44.90
2018-11-26T12:32:49.621Z,43.93
2018-11-26T12:35:18.325Z,42.53
2018-11-26T12:37:47.026Z,46.40
2018-11-26T12:40:17.897Z,45.95
2018-11-26T12:42:46.634Z,44.10
2018-11-26T12:45:24.597Z,48.13
2018-11-26T12:47:53.309Z,42.67
2018-11-26T12:50:22.011Z,46.90
2018-11-26T12:52:50.711Z,51.20
2018-11-26T12:55:20.494Z,42.17
2018-11-26T12:57:49.793Z,45.10
2018-11-26T13:00:25.401Z,40.17
2018-11-26T13:02:55.456Z,45.53
2018-11-26T13:05:24.166Z,44.70
2018-11-26T13:07:53.117Z,48.57
2018-11-26T13:10:22.602Z,49.70
2018-11-26T13:12:51.892Z,50.70
2018-11-26T13:15:22.731Z,47.53
2018-11-26T13:17:51.451Z,47.73
2018-11-26T13:20:21.630Z,48.87
2018-11-26T13:22:50.818Z,43.27
2018-11-26T13:25:23.611Z,48.87
2018-11-26T13:27:53.533Z,45.20
2018-11-26T13:30:24.555Z,46.17
2018-11-26T13:32:55.601Z,44.67
2018-11-26T13:35:24.521Z,46.40
2018-11-26T13:37:53.225Z,41.20
2018-11-26T13:40:22.079Z,42.17
2018-11-26T13:42:51.365Z,42.00
2018-11-26T13:45:21.481Z,37.40
2018-11-26T13:47:50.386Z,40.23
2018-11-26T13:50:23.003Z,38.50
2018-11-26T13:52:51.569Z,40.63
2018-11-26T13:55:20.336Z,40.00
2018-11-26T13:57:49.038Z,38.67
2018-11-26T14:00:18.005Z,40.93
2018-11-26T14:02:46.699Z,39.33
2018-11-26T14:05:17.529Z,42.43
2018-11-26T14:07:46.674Z,39.10
2018-11-26T14:10:20.455Z,37.75
2018-11-26T14:12:51.041Z,38.77
2018-11-26T14:15:19.870Z,41.48
2018-11-26T14:17:48.728Z,37.87
2018-11-26T14:20:17.521Z,40.10
2018-11-26T14:22:46.236Z,37.00
2018-11-26T14:25:16.814Z,36.58
2018-11-26T14:27:45.911Z,35.90
2018-11-26T14:30:16.784Z,41.13
2018-11-26T14:32:45.491Z,35.15
2018-11-26T14:35:14.979Z,41.60
2018-11-26T14:37:44.859Z,40.53
2018-11-26T14:40:17.127Z,36.07
2018-11-26T14:42:45.823Z,40.43
2018-11-26T14:45:14.712Z,38.00
2018-11-26T14:50:35.121Z,36.13
2018-11-26T14:53:20.190Z,37.30
2018-11-26T14:55:48.901Z,37.70
2018-11-26T14:58:17.674Z,35.85
2018-11-26T15:00:46.389Z,39.50
2018-11-26T15:03:15.123Z,34.70
2018-11-26T15:05:43.887Z,38.00
2018-11-26T15:08:12.586Z,36.53
2018-11-26T15:10:41.293Z,37.00
2018-11-26T15:13:10.010Z,38.83
2018-11-26T15:15:38.714Z,35.57
2018-11-26T15:18:07.465Z,37.43
2018-11-26T15:20:36.570Z,40.83
2018-11-26T15:23:05.736Z,38.87
2018-11-26T15:25:34.576Z,40.77
2018-11-26T15:28:11.137Z,35.33
2018-11-26T15:30:39.831Z,33.80
2018-11-26T15:33:08.779Z,39.13
2018-11-26T15:35:37.829Z,35.63
2018-11-26T15:38:06.635Z,37.33
2018-11-26T15:40:35.522Z,33.77
2018-11-26T15:43:05.691Z,37.13
2018-11-26T15:45:34.731Z,39.23
2018-11-26T15:48:05.935Z,38.27
2018-11-26T15:50:34.663Z,36.10
2018-11-26T15:53:03.464Z,36.00
2018-11-26T15:55:32.622Z,34.70
2018-11-26T15:58:01.697Z,33.37
2018-11-26T16:00:30.386Z,34.80
2018-11-26T16:05:58.660Z,32.03
2018-11-26T16:08:27.359Z,34.60
2018-11-26T16:10:56.066Z,36.10
2018-11-26T16:13:24.983Z,38.73
2018-11-26T16:15:53.708Z,30.93
2018-11-26T16:18:22.507Z,32.20
2018-11-26T16:20:51.499Z,35.97
2018-11-26T16:23:20.218Z,31.15
2018-11-26T16:25:49.380Z,34.33
2018-11-26T16:28:29.796Z,38.10
2018-11-26T16:30:58.503Z,37.57
2018-11-26T16:33:27.216Z,33.10
2018-11-26T16:35:56.206Z,38.33
2018-11-26T16:38:25.130Z,34.60
2018-11-26T16:40:55.583Z,35.27
2018-11-26T16:43:24.573Z,33.97
2018-11-26T16:45:53.579Z,38.10
2018-11-26T16:48:22.702Z,39.55
2018-11-26T16:50:51.872Z,33.27
2018-11-26T16:53:20.878Z,38.83
2018-11-26T16:55:56.399Z,36.30
2018-11-26T16:58:25.299Z,34.80
2018-11-26T17:00:54.293Z,34.33
2018-11-26T17:03:23.326Z,35.77
2018-11-26T17:05:52.263Z,34.13
2018-11-26T17:08:21.403Z,29.97
2018-11-26T17:10:50.555Z,37.67
2018-11-26T17:13:19.658Z,37.80
2018-11-26T17:15:48.343Z,32.50
2018-11-26T17:18:17.070Z,36.73
2018-11-26T17:20:45.910Z,35.05
2018-11-26T17:23:14.909Z,38.60
2018-11-26T17:25:43.902Z,39.30
2018-11-26T17:28:12.894Z,37.10
2018-11-26T17:30:41.815Z,63.30
2018-11-26T17:33:11.391Z,43.53
2018-11-26T17:35:40.284Z,36.10
2018-11-26T17:38:09.173Z,36.03
2018-11-26T17:40:39.593Z,42.03
2018-11-26T17:43:11.929Z,35.13
2018-11-26T17:45:40.780Z,38.93
2018-11-26T17:48:09.734Z,36.80
2018-11-26T17:50:40.310Z,36.60
2018-11-26T17:53:15.440Z,36.43
2018-11-26T17:55:53.980Z,33.17
2018-11-26T17:58:25.054Z,33.30
2018-11-26T18:01:04.342Z,33.40
2018-11-26T18:03:33.196Z,36.77
2018-11-26T18:06:01.906Z,37.07
2018-11-26T18:08:30.862Z,37.43
2018-11-26T18:10:59.598Z,35.93
2018-11-26T18:13:28.553Z,36.00
2018-11-26T18:15:57.527Z,36.77
2018-11-26T18:18:26.528Z,36.23
2018-11-26T18:20:55.518Z,35.87
2018-11-26T18:23:24.515Z,37.40
2018-11-26T18:25:53.898Z,34.20
2018-11-26T18:28:22.811Z,33.90
2018-11-26T18:30:52.630Z,35.73
2018-11-26T18:33:21.394Z,33.77
2018-11-26T18:35:50.538Z,33.63
2018-11-26T18:38:19.383Z,33.80
2018-11-26T18:40:50.010Z,37.67
2018-11-26T18:43:19.343Z,32.40
2018-11-26T18:45:48.165Z,32.47
2018-11-26T18:48:17.187Z,32.23
2018-11-26T18:50:46.227Z,35.20
2018-11-26T18:53:15.177Z,36.60
2018-11-26T18:55:44.327Z,32.10
2018-11-26T18:58:13.154Z,35.90
2018-11-26T19:00:45.127Z,34.17
2018-11-26T19:03:19.561Z,34.83
2018-11-26T19:05:50.606Z,38.67
2018-11-26T19:08:19.574Z,37.00
2018-11-26T19:10:51.485Z,33.80
2018-11-26T19:13:26.006Z,36.57
2018-11-26T19:15:58.242Z,35.03
2018-11-26T19:18:27.477Z,32.93
2018-11-26T19:20:56.215Z,35.20
2018-11-26T19:23:25.214Z,35.97
2018-11-26T19:25:54.636Z,32.87
2018-11-26T19:28:23.541Z,39.97
2018-11-26T19:30:52.494Z,34.43
2018-11-26T19:33:21.334Z,33.80
2018-11-26T19:35:50.057Z,30.57
2018-11-26T19:38:18.767Z,30.82
2018-11-26T19:40:47.470Z,34.30
2018-11-26T19:43:16.386Z,33.27
2018-11-26T19:45:45.125Z,34.17
2018-11-26T19:48:13.846Z,31.45
2018-11-26T19:50:42.538Z,32.70
2018-11-26T19:53:12.085Z,33.65
2018-11-26T19:55:42.259Z,31.27
2018-11-26T19:58:11.161Z,33.83
2018-11-26T20:00:40.318Z,32.23
2018-11-26T20:03:14.621Z,34.60
2018-11-26T20:08:44.322Z,31.03
2018-11-26T20:11:13.090Z,34.48
2018-11-26T20:13:41.808Z,33.80
2018-11-26T20:16:13.445Z,31.07
2018-11-26T20:18:42.405Z,32.27
2018-11-26T20:21:11.167Z,32.60
2018-11-26T20:23:39.902Z,36.87
2018-11-26T20:26:08.630Z,37.10
2018-11-26T20:28:37.367Z,38.50
2018-11-26T20:31:07.210Z,33.57
2018-11-26T20:33:36.541Z,33.97
2018-11-26T20:36:05.222Z,34.70
2018-11-26T20:38:34.030Z,35.63
2018-11-26T20:41:02.743Z,35.03
2018-11-26T20:43:31.500Z,33.60
2018-11-26T20:46:00.369Z,33.13
2018-11-26T20:48:30.635Z,35.73
2018-11-26T20:50:58.036Z,35.50
2018-11-26T20:53:28.133Z,35.77
2018-11-26T20:55:56.843Z,31.57
2018-11-26T20:58:32.100Z,37.40
2018-11-26T21:01:00.827Z,34.27
2018-11-26T21:03:31.795Z,39.30
2018-11-26T21:06:01.138Z,33.20
2018-11-26T21:08:30.123Z,37.70
2018-11-26T21:10:59.410Z,35.47
2018-11-26T21:13:28.436Z,36.27
2018-11-26T21:15:57.390Z,33.33
2018-11-26T21:18:26.390Z,33.37
2018-11-26T21:20:56.366Z,33.43
2018-11-26T21:23:29.818Z,32.70
2018-11-26T21:26:00.945Z,34.40
2018-11-26T21:28:29.895Z,30.70
2018-11-26T21:30:59.336Z,31.20
2018-11-26T21:33:28.337Z,31.37
2018-11-26T21:35:57.314Z,33.40
2018-11-26T21:38:26.316Z,31.50
2018-11-26T21:40:55.343Z,32.53
2018-11-26T21:43:24.614Z,31.03
2018-11-26T21:45:58.225Z,33.30
2018-11-26T21:48:27.519Z,34.37
2018-11-26T21:50:57.099Z,33.67
2018-11-26T21:53:26.057Z,34.53
2018-11-26T21:55:55.014Z,31.37
2018-11-26T21:58:23.970Z,30.20
2018-11-26T22:00:55.006Z,29.85
2018-11-26T22:03:23.978Z,31.90
2018-11-26T22:05:53.011Z,28.03
2018-11-26T22:08:22.000Z,28.80
2018-11-26T22:10:51.335Z,27.17
2018-11-26T22:13:21.754Z,29.42
2018-11-26T22:15:51.342Z,31.47
2018-11-26T22:18:20.275Z,27.00
2018-11-26T22:20:49.250Z,31.13
2018-11-26T22:23:18.329Z,29.23
2018-11-26T22:25:47.906Z,28.73
2018-11-26T22:28:16.916Z,27.67
2018-11-26T22:30:46.533Z,34.80
2018-11-26T22:33:15.484Z,29.17
2018-11-26T22:35:44.435Z,33.27
2018-11-26T22:38:13.406Z,26.10
2018-11-26T22:40:42.111Z,26.83
2018-11-26T22:43:11.071Z,26.10
2018-11-26T22:45:39.763Z,25.77
2018-11-26T22:48:13.391Z,28.60
2018-11-26T22:50:43.124Z,27.90
2018-11-26T22:53:11.966Z,29.70
2018-11-26T22:55:40.814Z,31.00
2018-11-26T22:58:10.813Z,28.80
2018-11-26T23:00:48.907Z,27.50
2018-11-26T23:03:19.045Z,28.47
2018-11-26T23:05:47.847Z,29.83
2018-11-26T23:08:16.559Z,26.73
2018-11-26T23:10:45.297Z,28.87
2018-11-26T23:13:13.999Z,28.75
2018-11-26T23:15:42.713Z,28.27
2018-11-26T23:18:11.430Z,30.87
2018-11-26T23:20:40.146Z,28.40
2018-11-26T23:23:08.862Z,29.77
2018-11-26T23:25:37.578Z,26.90
2018-11-26T23:28:06.303Z,28.30
2018-11-26T23:30:35.019Z,24.50
2018-11-26T23:33:04.759Z,26.50
2018-11-26T23:35:33.462Z,28.53
2018-11-26T23:38:02.162Z,31.90
2018-11-26T23:40:31.106Z,27.93
2018-11-26T23:42:59.849Z,34.50
2018-11-26T23:45:29.290Z,31.15
2018-11-26T23:47:58.383Z,27.17
2018-11-26T23:50:27.086Z,27.57
2018-11-26T23:52:55.800Z,31.20
2018-11-26T23:55:24.877Z,28.20
2018-11-26T23:57:53.598Z,28.20
